Time;durP1;ratioP1;P1;durP2;ratioP2;P2;SDS_P1;SDS_P2;PMS_P1;PMS_P2;Temp;Humidity;BMP_temperature;BMP_pressure;BME280_temperature;BME280_humidity;BME280_pressure;Samples;Min_cycle;Max_cycle;Signal;HPM_P1;HPM_P2
2022/03/12 00:01:48;;;;;;;69.50;32.33;;;;;;;-4.01;58.18;101962.63;1640673;86;21106;-67
2022/03/12 00:04:16;;;;;;;69.12;34.45;;;;;;;-4.02;58.40;101966.66;1640046;86;21011;-66
2022/03/12 00:06:46;;;;;;;69.97;34.63;;;;;;;-4.05;58.51;101963.84;1640707;86;21003;-67
2022/03/12 00:09:14;;;;;;;73.70;36.00;;;;;;;-4.10;58.57;101962.56;1640789;86;21007;-66
2022/03/12 00:11:49;;;;;;;73.50;35.55;;;;;;;-4.15;58.75;101969.44;1641418;86;21089;-67
2022/03/12 00:14:12;;;;;;;73.20;36.35;;;;;;;-4.22;58.95;101956.56;1638463;86;21079;-67
2022/03/12 00:16:41;;;;;;;67.78;34.75;;;;;;;-4.22;59.14;101955.25;1638962;86;21129;-67
2022/03/12 00:19:09;;;;;;;68.20;35.00;;;;;;;-4.22;59.27;101953.13;1647205;86;21120;-67
2022/03/12 00:21:41;;;;;;;72.25;35.83;;;;;;;-4.24;59.39;101950.66;1634770;87;21001;-66
2022/03/12 00:24:10;;;;;;;72.67;35.17;;;;;;;-4.24;59.46;101950.66;1635176;87;21153;-67
2022/03/12 00:26:38;;;;;;;66.92;33.00;;;;;;;-4.26;59.61;101946.85;1644468;84;21097;-66
2022/03/12 00:29:13;;;;;;;80.92;37.67;;;;;;;-4.26;59.69;101946.03;1647882;86;21597;-67
2022/03/12 00:31:46;;;;;;;70.52;34.78;;;;;;;-4.26;59.83;101947.33;1640751;86;21059;-67
2022/03/12 00:34:14;;;;;;;66.45;33.78;;;;;;;-4.26;60.02;101932.50;1648823;84;21143;-67
2022/03/12 00:36:42;;;;;;;69.35;33.45;;;;;;;-4.24;60.20;101936.31;1647984;84;22068;-67
2022/03/12 00:39:10;;;;;;;48.33;23.10;;;;;;;-4.25;60.38;101936.76;1647513;84;21090;-66
2022/03/12 00:41:39;;;;;;;48.70;22.60;;;;;;;-4.25;60.66;101935.94;1647948;84;21083;-66
2022/03/12 00:44:06;;;;;;;33.28;16.10;;;;;;;-4.27;60.99;101935.25;1648214;84;21208;-66
2022/03/12 00:46:33;;;;;;;30.10;15.03;;;;;;;-4.33;61.21;101926.62;1648052;84;21146;-65
2022/03/12 00:49:02;;;;;;;26.50;14.65;;;;;;;-4.40;61.23;101928.08;1646519;84;21104;-66
2022/03/12 00:51:29;;;;;;;24.02;13.50;;;;;;;-4.46;61.29;101931.19;1649770;84;21040;-68
2022/03/12 00:53:57;;;;;;;22.30;12.37;;;;;;;-4.46;61.29;101933.80;1646660;84;21053;-67
2022/03/12 00:56:24;;;;;;;23.38;12.28;;;;;;;-4.46;61.35;101929.88;1647126;86;21222;-67
2022/03/12 00:58:51;;;;;;;25.37;12.35;;;;;;;-4.44;61.48;101918.37;1646617;86;21102;-66
2022/03/12 01:01:18;;;;;;;25.40;13.32;;;;;;;-4.41;61.53;101922.02;1621306;87;21416;-67
2022/03/12 01:03:45;;;;;;;25.68;13.45;;;;;;;-4.37;61.56;101918.70;1646867;84;21026;-67
2022/03/12 01:06:15;;;;;;;25.20;12.82;;;;;;;-4.36;61.63;101916.44;1647610;84;21201;-66
2022/03/12 01:08:42;;;;;;;25.30;13.50;;;;;;;-4.31;61.66;101910.34;1645904;85;21137;-67
2022/03/12 01:11:11;;;;;;;25.55;12.55;;;;;;;-4.28;61.59;101917.48;1641434;85;21069;-67
2022/03/12 01:13:40;;;;;;;35.60;18.82;;;;;;;-4.27;61.41;101907.38;1635593;87;21231;-66
2022/03/12 01:16:07;;;;;;;33.15;17.95;;;;;;;-4.25;61.15;101912.45;1639735;86;21043;-66
2022/03/12 01:18:39;;;;;;;32.05;17.15;;;;;;;-4.25;60.89;101904.63;1648107;84;21273;-67
2022/03/12 01:21:10;;;;;;;46.85;22.00;;;;;;;-4.25;60.70;101911.98;1647713;84;21046;-66
2022/03/12 01:23:37;;;;;;;40.08;21.25;;;;;;;-4.30;60.48;101906.33;1647500;86;22135;-66
2022/03/12 01:26:06;;;;;;;46.05;21.87;;;;;;;-4.40;60.32;101902.00;1638130;86;21027;-66
2022/03/12 01:28:33;;;;;;;55.20;27.27;;;;;;;-4.45;60.24;101899.75;1650492;84;21192;-65
2022/03/12 01:31:00;;;;;;;58.20;27.95;;;;;;;-4.51;60.11;101897.20;1655968;84;20996;-66
2022/03/12 01:33:28;;;;;;;57.80;28.12;;;;;;;-4.62;60.04;101899.00;1653370;86;21121;-66
2022/03/12 01:35:56;;;;;;;58.98;27.65;;;;;;;-4.67;60.07;101902.45;1651605;84;21102;-66
2022/03/12 01:38:35;;;;;;;62.38;30.32;;;;;;;-4.69;60.10;101895.25;1652444;84;21129;-67
2022/03/12 01:41:02;;;;;;;69.20;32.08;;;;;;;-4.70;60.14;101893.12;1647969;84;21120;-65
2022/03/12 01:43:35;;;;;;;80.62;34.95;;;;;;;-4.69;60.26;101898.67;1648149;84;21222;-67
2022/03/12 01:46:02;;;;;;;74.60;35.03;;;;;;;-4.68;60.35;101895.59;1637073;86;21062;-66
2022/03/12 01:48:29;;;;;;;73.22;33.70;;;;;;;-4.67;60.31;101897.23;1648876;84;21126;-66
2022/03/12 01:50:59;;;;;;;75.85;34.48;;;;;;;-4.66;60.23;101893.70;1656924;85;21317;-67
2022/03/12 01:53:26;;;;;;;69.00;33.90;;;;;;;-4.66;60.20;101890.61;1664968;85;21012;-66
2022/03/12 01:55:55;;;;;;;78.45;37.45;;;;;;;-4.65;60.16;101898.77;1643159;85;21554;-66
2022/03/12 01:58:23;;;;;;;79.22;38.02;;;;;;;-4.65;60.08;101898.77;1649700;84;21110;-66
2022/03/12 02:00:53;;;;;;;81.02;36.65;;;;;;;-4.65;60.18;101900.08;1655617;85;20990;-67
2022/03/12 02:03:29;;;;;;;74.27;34.95;;;;;;;-4.66;60.34;101899.73;1641503;86;21434;-66
2022/03/12 02:05:53;;;;;;;73.78;34.33;;;;;;;-4.66;60.39;101899.73;1645553;86;21149;-65
2022/03/12 02:08:22;;;;;;;68.35;33.00;;;;;;;-4.66;60.42;101899.73;1651237;84;21112;-66
2022/03/12 02:10:51;;;;;;;78.62;35.88;;;;;;;-4.65;60.41;101903.98;1663142;85;20996;-66
2022/03/12 02:13:18;;;;;;;80.65;37.08;;;;;;;-4.65;60.44;101900.55;1666164;85;21082;-67
2022/03/12 02:15:46;;;;;;;73.37;35.43;;;;;;;-4.66;60.37;101898.43;1640211;84;21030;-66
2022/03/12 02:18:14;;;;;;;67.15;32.60;;;;;;;-4.64;60.31;101892.62;1635366;87;21620;-66
2022/03/12 02:20:43;;;;;;;76.72;35.08;;;;;;;-4.62;60.34;101893.79;1639076;86;21463;-67
2022/03/12 02:23:11;;;;;;;68.72;31.90;;;;;;;-4.62;60.39;101893.79;1650523;85;21067;-66
2022/03/12 02:25:39;;;;;;;54.15;26.45;;;;;;;-4.63;60.54;101892.97;1646979;84;21182;-66
2022/03/12 02:28:18;;;;;;;49.03;24.60;;;;;;;-4.61;60.76;101892.34;1648614;84;21812;-67
2022/03/12 02:30:51;;;;;;;62.58;28.55;;;;;;;-4.59;60.93;101886.55;1647720;85;21039;-66
2022/03/12 02:33:28;;;;;;;46.33;22.10;;;;;;;-4.57;60.99;101888.56;1625454;86;21562;-66
2022/03/12 02:35:56;;;;;;;62.20;30.70;;;;;;;-4.58;60.91;101880.37;1648582;84;21498;-66
2022/03/12 02:38:24;;;;;;;78.35;34.55;;;;;;;-4.57;60.90;101884.66;1646390;86;21129;-67
2022/03/12 02:40:53;;;;;;;66.22;33.08;;;;;;;-4.57;60.81;101881.22;1648479;84;21156;-65
2022/03/12 02:43:26;;;;;;;71.57;34.15;;;;;;;-4.61;60.67;101885.83;1630374;86;21095;-66
2022/03/12 02:45:57;;;;;;;74.65;34.98;;;;;;;-4.63;60.56;101890.36;1646960;84;21613;-65
2022/03/12 02:48:25;;;;;;;67.70;32.23;;;;;;;-4.66;60.41;101881.48;1648865;84;21514;-66
2022/03/12 02:50:53;;;;;;;59.33;28.15;;;;;;;-4.71;60.32;101879.71;1646863;84;21681;-65
2022/03/12 02:53:20;;;;;;;60.08;29.55;;;;;;;-4.73;60.27;101875.95;1648408;84;21157;-66
2022/03/12 02:55:47;;;;;;;58.92;27.98;;;;;;;-4.75;60.28;101873.10;1647250;84;21019;-67
2022/03/12 02:58:14;;;;;;;54.05;26.68;;;;;;;-4.80;60.33;101866.97;1646896;84;21166;-66
2022/03/12 03:00:42;;;;;;;54.27;26.27;;;;;;;-4.86;60.34;101863.55;1647960;84;21000;-66
2022/03/12 03:03:09;;;;;;;53.08;26.42;;;;;;;-4.88;60.42;101864.63;1648197;84;21113;-66
2022/03/12 03:05:47;;;;;;;52.08;26.00;;;;;;;-4.91;60.51;101857.05;1649260;85;21105;-67
2022/03/12 03:08:21;;;;;;;52.08;24.43;;;;;;;-4.95;60.52;101851.26;1648792;84;21126;-66
2022/03/12 03:10:52;;;;;;;46.63;22.87;;;;;;;-4.98;60.55;101851.02;1625729;87;21127;-64
2022/03/12 03:13:25;;;;;;;47.33;22.93;;;;;;;-5.01;60.56;101856.48;1648562;84;21046;-66
2022/03/12 03:15:59;;;;;;;42.75;22.48;;;;;;;-5.04;60.56;101854.12;1648848;84;21058;-65
2022/03/12 03:18:32;;;;;;;44.98;22.93;;;;;;;-5.08;60.61;101847.98;1650270;84;21220;-64
2022/03/12 03:21:01;;;;;;;43.65;22.87;;;;;;;-5.10;60.65;101848.58;1649347;84;20991;-65
2022/03/12 03:23:31;;;;;;;43.90;22.00;;;;;;;-5.12;60.66;101842.20;1650592;84;21121;-64
2022/03/12 03:26:00;;;;;;;45.88;24.05;;;;;;;-5.13;60.68;101832.73;1648489;84;21591;-66
2022/03/12 03:28:26;;;;;;;51.25;26.10;;;;;;;-5.12;60.68;101835.69;1651685;84;21058;-65
2022/03/12 03:30:53;;;;;;;48.42;26.40;;;;;;;-5.10;60.73;101833.80;1642482;84;21998;-65
2022/03/12 03:33:23;;;;;;;53.15;27.93;;;;;;;-5.05;60.83;101843.84;1650302;85;21043;-66
2022/03/12 03:35:50;;;;;;;51.45;27.25;;;;;;;-5.03;60.95;101838.04;1647976;84;21168;-66
2022/03/12 03:38:18;;;;;;;55.88;27.95;;;;;;;-5.00;60.98;101836.02;1648305;84;21022;-67
2022/03/12 03:40:49;;;;;;;56.90;28.77;;;;;;;-4.97;61.01;101830.55;1647361;84;21652;-66
2022/03/12 03:43:21;;;;;;;54.03;28.55;;;;;;;-4.92;60.99;101834.55;1649878;84;21256;-65
2022/03/12 03:45:53;;;;;;;54.85;27.55;;;;;;;-4.89;60.94;101834.31;1648410;84;21115;-66
2022/03/12 03:48:23;;;;;;;48.35;25.30;;;;;;;-4.86;60.84;101834.06;1647171;84;27001;-66
2022/03/12 03:50:51;;;;;;;46.37;23.40;;;;;;;-4.85;60.79;101833.11;1648490;84;21142;-65
2022/03/12 03:53:21;;;;;;;46.77;24.30;;;;;;;-4.86;60.62;101827.55;1648061;84;21101;-66
2022/03/12 03:55:48;;;;;;;48.10;23.75;;;;;;;-4.89;60.40;101824.71;1647781;84;21366;-66
2022/03/12 03:58:16;;;;;;;45.92;23.98;;;;;;;-4.90;60.28;101828.73;1622398;84;21039;-66
2022/03/12 04:00:55;;;;;;;49.58;23.85;;;;;;;-4.95;60.15;101823.91;1647823;84;21030;-66
2022/03/12 04:03:24;;;;;;;45.10;24.70;;;;;;;-4.98;60.08;101822.36;1647259;84;21731;-66
2022/03/12 04:05:51;;;;;;;56.15;28.25;;;;;;;-4.99;60.04;101826.41;1649593;84;21169;-67
2022/03/12 04:08:21;;;;;;;51.83;26.45;;;;;;;-5.05;60.01;101817.30;1646064;86;21106;-65
2022/03/12 04:10:51;;;;;;;51.00;24.30;;;;;;;-5.05;60.06;101814.70;1650177;84;20989;-66
2022/03/12 04:13:20;;;;;;;50.73;26.33;;;;;;;-5.02;60.06;101818.84;1646641;84;21062;-66
2022/03/12 04:15:48;;;;;;;41.55;22.48;;;;;;;-5.03;60.06;101819.32;1638330;86;21103;-66
2022/03/12 04:18:18;;;;;;;49.30;25.23;;;;;;;-5.03;60.09;101816.72;1637960;86;21090;-64
2022/03/12 04:20:47;;;;;;;50.85;25.23;;;;;;;-5.03;60.03;101818.02;1638671;86;21074;-65
2022/03/12 04:23:21;;;;;;;47.65;26.05;;;;;;;-5.01;60.02;101816.58;1663477;85;21086;-67
2022/03/12 04:25:43;;;;;;;47.55;23.85;;;;;;;-5.01;60.03;101816.09;1617174;87;21064;-66
2022/03/12 04:28:11;;;;;;;46.65;24.45;;;;;;;-4.97;60.08;101817.53;1639255;86;21561;-67
2022/03/12 04:30:38;;;;;;;47.88;24.25;;;;;;;-4.95;60.05;101813.00;1647929;84;21097;-66
2022/03/12 04:33:10;;;;;;;47.30;22.65;;;;;;;-4.95;60.03;101819.99;1646881;85;21230;-66
2022/03/12 04:35:38;;;;;;;46.80;24.52;;;;;;;-4.95;60.03;101817.39;1647161;84;21090;-64
2022/03/12 04:38:06;;;;;;;45.00;24.12;;;;;;;-4.90;59.98;101818.30;1646876;84;21074;-66
2022/03/12 04:40:33;;;;;;;45.10;24.12;;;;;;;-4.86;59.99;101814.04;1647031;84;21118;-67
2022/03/12 04:43:00;;;;;;;43.60;23.32;;;;;;;-4.79;60.00;101811.76;1647154;86;21130;-65
2022/03/12 04:45:29;;;;;;;50.30;25.05;;;;;;;-4.73;59.95;101813.87;1648235;84;21256;-65
2022/03/12 04:47:56;;;;;;;50.43;25.62;;;;;;;-4.70;59.95;101812.31;1649804;84;21645;-65
2022/03/12 04:50:23;;;;;;;50.33;25.50;;;;;;;-4.66;59.96;101811.09;1648442;84;21111;-66
2022/03/12 04:52:52;;;;;;;47.15;25.10;;;;;;;-4.59;60.05;101807.51;1647294;84;21157;-65
2022/03/12 04:55:24;;;;;;;44.70;24.60;;;;;;;-4.51;60.10;101812.45;1649663;84;21074;-66
2022/03/12 04:57:52;;;;;;;51.88;25.72;;;;;;;-4.40;60.17;101815.94;1647929;84;21566;-65
2022/03/12 05:00:26;;;;;;;46.48;24.30;;;;;;;-4.33;60.24;101806.16;1647980;85;21593;-67
2022/03/12 05:03:02;;;;;;;47.10;24.82;;;;;;;-4.20;60.36;101805.95;1642682;85;21142;-66
2022/03/12 05:05:30;;;;;;;47.60;26.12;;;;;;;-4.07;60.44;101803.95;1646557;85;21105;-66
2022/03/12 05:07:59;;;;;;;45.17;24.27;;;;;;;-3.88;60.47;101806.28;1645970;86;21168;-65
2022/03/12 05:10:29;;;;;;;44.18;24.43;;;;;;;-3.71;60.46;101797.02;1646877;84;21566;-66
2022/03/12 05:13:00;;;;;;;45.52;23.98;;;;;;;-3.56;60.48;101799.10;1645794;85;21474;-66
2022/03/12 05:15:37;;;;;;;42.67;22.45;;;;;;;-3.36;60.43;101799.97;1651258;84;21035;-67
2022/03/12 05:18:03;;;;;;;40.83;19.57;;;;;;;-3.16;60.29;101796.92;1647987;84;21050;-66
2022/03/12 05:20:30;;;;;;;40.67;20.12;;;;;;;-3.02;59.98;101795.69;1647384;84;21137;-67
2022/03/12 05:22:57;;;;;;;32.30;18.60;;;;;;;-2.90;59.63;101789.82;1648194;84;21324;-66
2022/03/12 05:25:25;;;;;;;35.78;18.40;;;;;;;-2.79;58.92;101796.72;1638045;86;21655;-65
2022/03/12 05:27:53;;;;;;;36.50;18.20;;;;;;;-2.75;58.44;101788.45;1635460;87;21029;-68
2022/03/12 05:30:21;;;;;;;35.65;17.90;;;;;;;-2.69;57.99;101788.38;1642000;85;21141;-67
2022/03/12 05:32:54;;;;;;;30.65;15.43;;;;;;;-2.59;57.47;101791.80;1650025;85;22660;-67
2022/03/12 05:35:22;;;;;;;33.78;17.12;;;;;;;-2.59;57.47;101791.80;1647765;84;21161;-66
2022/03/12 05:37:52;;;;;;;29.30;14.98;;;;;;;-2.50;57.18;101787.50;1649276;84;21114;-68
2022/03/12 05:40:25;;;;;;;28.87;15.08;;;;;;;-2.40;56.59;101781.78;1647753;84;21035;-66
2022/03/12 05:42:51;;;;;;;30.68;15.20;;;;;;;-2.38;56.06;101778.03;1648643;84;21023;-66
2022/03/12 05:45:19;;;;;;;27.20;14.18;;;;;;;-2.35;55.31;101771.70;1647641;84;21557;-68
2022/03/12 05:47:47;;;;;;;29.55;14.20;;;;;;;-2.30;55.04;101772.57;1646992;84;21272;-66
2022/03/12 05:50:14;;;;;;;27.17;14.40;;;;;;;-2.27;54.94;101770.98;1650379;84;21102;-67
2022/03/12 05:52:48;;;;;;;30.20;15.58;;;;;;;-2.21;54.52;101777.77;1646753;84;21118;-66
2022/03/12 05:55:23;;;;;;;28.42;15.60;;;;;;;-2.16;54.59;101771.64;1649968;84;21102;-67
2022/03/12 05:57:50;;;;;;;28.55;15.28;;;;;;;-2.08;54.33;101767.47;1628460;85;21083;-67
2022/03/12 06:00:18;;;;;;;27.82;14.28;;;;;;;-2.01;54.38;101768.05;1648022;84;21172;-66
2022/03/12 06:02:52;;;;;;;28.12;14.60;;;;;;;-1.95;54.28;101766.16;1636199;85;21056;-67
2022/03/12 06:05:24;;;;;;;24.35;12.98;;;;;;;-1.87;54.03;101764.64;1648414;85;21177;-66
2022/03/12 06:07:53;;;;;;;26.37;13.30;;;;;;;-1.82;53.93;101768.45;1649111;84;21047;-66
2022/03/12 06:10:24;;;;;;;26.07;13.53;;;;;;;-1.75;53.63;101770.82;1650155;84;21185;-66
2022/03/12 06:12:57;;;;;;;24.87;12.30;;;;;;;-1.64;53.77;101770.31;1647261;86;21592;-68
2022/03/12 06:15:27;;;;;;;24.95;12.18;;;;;;;-1.56;52.99;101763.83;1648493;86;21078;-67
2022/03/12 06:17:55;;;;;;;23.83;12.00;;;;;;;-1.53;52.52;101754.38;1649646;84;21083;-69
2022/03/12 06:20:27;;;;;;;22.98;11.43;;;;;;;-1.49;52.28;101754.41;1647830;84;21103;-67
2022/03/12 06:22:55;;;;;;;18.70;10.18;;;;;;;-1.39;52.21;101755.16;1645541;84;21112;-67
2022/03/12 06:25:23;;;;;;;19.25;10.30;;;;;;;-1.34;51.05;101754.23;1635721;87;21937;-67
2022/03/12 06:27:54;;;;;;;22.27;10.98;;;;;;;-1.31;50.60;101750.02;1635742;86;21140;-68
2022/03/12 06:30:18;;;;;;;20.85;10.93;;;;;;;-1.25;50.56;101745.48;1647755;84;21157;-68
2022/03/12 06:32:47;;;;;;;18.02;9.75;;;;;;;-1.15;50.51;101748.49;1651722;84;21003;-67
2022/03/12 06:35:15;;;;;;;17.98;9.58;;;;;;;-1.02;50.40;101746.31;1649007;86;21665;-66
2022/03/12 06:37:42;;;;;;;17.65;8.33;;;;;;;-0.87;49.86;101753.98;1649223;84;21147;-68
2022/03/12 06:40:11;;;;;;;15.98;8.03;;;;;;;-0.75;48.95;101754.57;1653118;84;21153;-68
2022/03/12 06:42:39;;;;;;;17.50;8.78;;;;;;;-0.68;48.46;101751.66;1649110;84;21054;-68
2022/03/12 06:45:08;;;;;;;15.90;8.23;;;;;;;-0.57;48.51;101744.02;1648476;84;21089;-67
2022/03/12 06:47:38;;;;;;;16.30;8.93;;;;;;;-0.45;47.81;101744.10;1651626;84;21095;-68
2022/03/12 06:50:09;;;;;;;16.48;8.13;;;;;;;-0.33;47.90;101744.64;1648053;84;21094;-67
2022/03/12 06:52:41;;;;;;;15.63;8.78;;;;;;;-0.17;47.61;101741.28;1647628;84;21101;-69
2022/03/12 06:55:09;;;;;;;15.10;7.92;;;;;;;-0.06;47.34;101738.40;1646868;84;21157;-67
2022/03/12 06:57:38;;;;;;;16.17;8.23;;;;;;;0.06;46.77;101729.72;1648636;84;21011;-69
2022/03/12 07:00:08;;;;;;;13.28;7.37;;;;;;;0.18;46.57;101722.70;1647289;84;21019;-68
2022/03/12 07:02:41;;;;;;;12.73;7.53;;;;;;;0.25;46.00;101725.52;1649843;84;21133;-67
2022/03/12 07:05:10;;;;;;;15.63;7.85;;;;;;;0.34;46.17;101726.38;1647460;84;21605;-68
2022/03/12 07:07:38;;;;;;;14.23;7.33;;;;;;;0.46;46.08;101719.34;1645451;85;21073;-70
2022/03/12 07:10:08;;;;;;;13.35;7.50;;;;;;;0.64;46.00;101709.16;1635587;87;21113;-68
2022/03/12 07:12:37;;;;;;;13.32;7.28;;;;;;;0.84;45.80;101705.72;1635754;87;21033;-66
2022/03/12 07:15:07;;;;;;;13.85;7.35;;;;;;;1.01;44.66;101710.48;1648523;84;21708;-68
2022/03/12 07:17:37;;;;;;;11.95;6.87;;;;;;;1.14;44.41;101711.61;1646363;85;21078;-68
2022/03/12 07:20:07;;;;;;;12.80;6.85;;;;;;;1.27;43.82;101699.76;1648268;84;21146;-68
2022/03/12 07:22:36;;;;;;;12.33;6.25;;;;;;;1.42;42.96;101705.98;1647895;84;21557;-68
2022/03/12 07:25:05;;;;;;;12.05;5.87;;;;;;;1.53;42.67;101702.98;1648960;84;22251;-66
2022/03/12 07:27:34;;;;;;;11.48;5.90;;;;;;;1.63;41.67;101693.08;1651178;84;21550;-70
2022/03/12 07:30:05;;;;;;;18.62;7.28;;;;;;;1.73;41.68;101692.06;1647778;84;21094;-67
2022/03/12 07:32:32;;;;;;;10.38;5.62;;;;;;;1.82;41.34;101686.59;1648391;85;21047;-68
2022/03/12 07:35:00;;;;;;;10.68;5.67;;;;;;;1.95;41.21;101686.04;1651178;84;21102;-68
2022/03/12 07:37:27;;;;;;;10.63;5.62;;;;;;;2.11;40.52;101675.92;1650826;84;21015;-68
2022/03/12 07:39:53;;;;;;;9.50;4.95;;;;;;;2.26;40.79;101672.02;1649705;84;21233;-68
2022/03/12 07:42:20;;;;;;;8.90;5.12;;;;;;;2.40;39.90;101659.89;1649700;84;21095;-68
2022/03/12 07:44:47;;;;;;;12.00;5.70;;;;;;;2.51;39.48;101656.86;1640633;84;21136;-69
2022/03/12 07:47:14;;;;;;;10.85;6.17;;;;;;;2.59;38.54;101651.01;1635909;86;21513;-68
2022/03/12 07:49:41;;;;;;;10.43;5.90;;;;;;;2.66;38.92;101656.89;1643495;85;21126;-68
2022/03/12 07:52:10;;;;;;;10.55;5.35;;;;;;;2.72;38.93;101650.91;1646970;84;21320;-69
2022/03/12 07:54:37;;;;;;;9.38;5.47;;;;;;;2.84;38.47;101646.86;1639045;86;20903;-68
2022/03/12 07:57:05;;;;;;;8.93;5.05;;;;;;;2.99;38.34;101642.91;1639107;86;21601;-69
2022/03/12 07:59:34;;;;;;;9.85;5.53;;;;;;;3.11;37.73;101636.20;1638558;87;21086;-69
2022/03/12 08:02:02;;;;;;;10.18;5.28;;;;;;;3.22;37.49;101636.23;1648958;84;21050;-69
2022/03/12 08:04:33;;;;;;;9.35;5.28;;;;;;;3.27;36.85;101636.52;1640695;86;21151;-68
2022/03/12 08:07:02;;;;;;;8.85;5.10;;;;;;;3.33;37.37;101631.84;1616916;86;21031;-69
2022/03/12 08:09:30;;;;;;;9.33;4.92;;;;;;;3.38;36.93;101628.14;1649735;84;21161;-67
2022/03/12 08:11:59;;;;;;;8.78;4.70;;;;;;;3.41;36.38;101616.39;1650994;84;21039;-68
2022/03/12 08:14:28;;;;;;;8.53;4.72;;;;;;;3.43;35.45;101613.89;1649929;84;21616;-68
2022/03/12 08:16:55;;;;;;;8.93;4.78;;;;;;;3.49;35.54;101607.06;1648599;84;21282;-69
2022/03/12 08:19:23;;;;;;;7.25;4.08;;;;;;;3.55;35.21;101602.84;1646014;85;21255;-70
2022/03/12 08:21:52;;;;;;;8.48;4.42;;;;;;;3.63;34.72;101602.76;1647884;84;21077;-69
2022/03/12 08:24:20;;;;;;;8.93;4.47;;;;;;;3.79;34.34;101592.48;1647653;86;21028;-70
2022/03/12 08:26:48;;;;;;;8.15;3.80;;;;;;;3.89;34.03;101590.34;1646450;86;21750;-67
2022/03/12 08:29:17;;;;;;;9.43;4.70;;;;;;;3.95;33.84;101581.16;1647829;84;21131;-68
2022/03/12 08:31:45;;;;;;;7.12;3.98;;;;;;;3.98;33.68;101591.36;1648922;84;21120;-68
2022/03/12 08:34:12;;;;;;;8.05;3.95;;;;;;;4.04;33.71;101584.48;1647168;84;21078;-69
2022/03/12 08:36:42;;;;;;;8.15;3.55;;;;;;;4.18;33.63;101587.59;1630629;85;21528;-68
2022/03/12 08:39:10;;;;;;;6.62;3.65;;;;;;;4.35;33.39;101593.95;1647978;84;21023;-70
2022/03/12 08:41:38;;;;;;;8.93;3.95;;;;;;;4.41;31.49;101576.00;1646975;84;21151;-68
2022/03/12 08:44:07;;;;;;;7.45;4.30;;;;;;;4.41;31.54;101578.12;1649264;84;21044;-69
2022/03/12 08:46:37;;;;;;;10.40;4.22;;;;;;;4.45;31.83;101570.62;1645847;84;21146;-69
2022/03/12 08:49:05;;;;;;;6.75;3.95;;;;;;;4.56;30.93;101586.48;1650964;84;21098;-69
2022/03/12 08:51:33;;;;;;;6.50;3.50;;;;;;;4.64;31.16;101586.32;1647168;85;21121;-69
2022/03/12 08:54:02;;;;;;;7.72;3.70;;;;;;;4.68;31.44;101578.34;1645504;84;48914;-68
2022/03/12 08:56:29;;;;;;;9.48;3.98;;;;;;;4.72;30.85;101575.61;1639333;86;20984;-70
2022/03/12 08:58:58;;;;;;;7.97;3.70;;;;;;;4.72;31.34;101584.88;1639183;86;21044;-69
2022/03/12 09:01:26;;;;;;;7.62;4.30;;;;;;;4.78;31.25;101577.48;1638678;86;21155;-69
2022/03/12 09:03:54;;;;;;;7.62;4.62;;;;;;;4.82;31.29;101574.75;1638177;86;21786;-68
2022/03/12 09:06:22;;;;;;;9.85;4.30;;;;;;;4.87;31.83;101568.39;1639485;86;21408;-69
2022/03/12 09:08:49;;;;;;;10.82;4.85;;;;;;;4.94;31.55;101570.56;1640783;86;21081;-69
2022/03/12 09:11:18;;;;;;;10.45;4.92;;;;;;;4.99;31.65;101560.70;1641741;85;21125;-68
2022/03/12 09:13:46;;;;;;;8.83;4.65;;;;;;;5.03;31.38;101563.77;1648559;84;21134;-69
2022/03/12 09:16:15;;;;;;;9.90;5.00;;;;;;;4.99;31.34;101558.56;1653099;84;21023;-69
2022/03/12 09:18:46;;;;;;;8.50;4.58;;;;;;;5.05;30.53;101559.92;1651513;84;21115;-68
2022/03/12 09:21:14;;;;;;;11.68;4.60;;;;;;;5.11;30.60;101550.39;1650138;84;21087;-68
2022/03/12 09:23:42;;;;;;;7.00;4.03;;;;;;;5.19;30.39;101570.08;1647450;84;21149;-69
2022/03/12 09:26:13;;;;;;;7.75;4.83;;;;;;;5.21;29.73;101559.30;1648773;84;21009;-69
2022/03/12 09:28:39;;;;;;;10.60;5.12;;;;;;;5.18;29.99;101554.70;1646781;84;22236;-70
2022/03/12 09:31:06;;;;;;;9.50;4.72;;;;;;;5.14;30.31;101549.48;1646927;84;21501;-69
2022/03/12 09:33:35;;;;;;;8.23;4.33;;;;;;;5.20;29.88;101537.78;1634988;87;21152;-69
2022/03/12 09:36:03;;;;;;;8.03;4.47;;;;;;;5.26;29.70;101535.67;1634248;87;21626;-69
2022/03/12 09:38:30;;;;;;;8.20;4.10;;;;;;;5.36;29.65;101534.79;1639495;84;21082;-69
2022/03/12 09:40:59;;;;;;;7.50;4.53;;;;;;;5.51;29.13;101533.33;1639268;86;21079;-70
2022/03/12 09:43:26;;;;;;;8.18;4.20;;;;;;;5.59;28.13;101534.46;1640341;85;21198;-68
2022/03/12 09:45:52;;;;;;;8.23;4.42;;;;;;;5.68;28.57;101521.34;1655477;85;21530;-68
2022/03/12 09:48:19;;;;;;;7.83;4.58;;;;;;;5.75;27.59;101526.66;1668040;85;21024;-68
2022/03/12 09:50:46;;;;;;;8.98;4.67;;;;;;;5.79;27.67;101520.77;1659417;85;20980;-67
2022/03/12 09:53:13;;;;;;;9.48;5.10;;;;;;;5.83;27.30;101515.88;1668215;85;21078;-68
2022/03/12 09:55:40;;;;;;;10.30;5.17;;;;;;;5.87;27.58;101514.45;1652160;86;21147;-69
2022/03/12 09:58:06;;;;;;;8.83;5.17;;;;;;;5.95;27.64;101502.84;1647946;84;21075;-69
2022/03/12 10:00:34;;;;;;;10.60;5.70;;;;;;;6.02;27.02;101510.30;1648003;84;21044;-68
2022/03/12 10:03:04;;;;;;;8.23;5.35;;;;;;;6.05;27.02;101509.89;1651394;84;21493;-69
2022/03/12 10:05:33;;;;;;;13.88;5.70;;;;;;;6.01;26.87;101507.34;1648383;84;21083;-70
2022/03/12 10:08:01;;;;;;;8.45;5.00;;;;;;;5.90;27.31;101507.93;1649055;85;21224;-68
2022/03/12 10:10:28;;;;;;;9.33;5.70;;;;;;;5.87;26.96;101500.67;1649673;85;21035;-70
2022/03/12 10:12:56;;;;;;;9.40;5.70;;;;;;;5.83;26.94;101488.03;1648262;86;21220;-69
2022/03/12 10:15:23;;;;;;;9.70;5.60;;;;;;;5.80;27.52;101491.91;1649472;85;21135;-68
2022/03/12 10:17:50;;;;;;;10.53;6.50;;;;;;;5.85;27.79;101486.79;1640018;84;21321;-69
2022/03/12 10:20:17;;;;;;;11.08;6.10;;;;;;;5.85;27.19;101485.98;1648499;84;21298;-69
2022/03/12 10:22:45;;;;;;;11.20;6.42;;;;;;;5.93;27.47;101474.41;1647942;84;21043;-66
2022/03/12 10:25:14;;;;;;;9.83;6.05;;;;;;;6.07;27.41;101476.84;1651903;84;21042;-68
2022/03/12 10:27:41;;;;;;;11.90;6.45;;;;;;;6.21;26.69;101471.53;1650859;84;21688;-68
2022/03/12 10:30:10;;;;;;;12.00;6.95;;;;;;;6.26;26.58;101457.16;1650272;84;21446;-69
2022/03/12 10:32:46;;;;;;;10.75;6.70;;;;;;;6.28;26.36;101455.91;1647557;84;21149;-69
2022/03/12 10:35:17;;;;;;;11.22;6.70;;;;;;;6.34;26.67;101450.30;1649535;84;21580;-67
2022/03/12 10:37:49;;;;;;;11.93;7.25;;;;;;;6.49;26.24;101446.91;1649170;84;21073;-68
2022/03/12 10:40:18;;;;;;;11.60;6.50;;;;;;;6.60;26.21;101437.48;1651072;84;21153;-68
2022/03/12 10:43:02;;;;;;;11.73;5.78;;;;;;;6.71;25.68;101435.52;1649162;84;21520;-69
2022/03/12 10:45:32;;;;;;;13.00;6.35;;;;;;;6.78;25.10;101427.53;1649918;84;21636;-70
2022/03/12 10:48:02;;;;;;;10.68;5.97;;;;;;;6.81;25.02;101427.92;1649848;84;21727;-69
2022/03/12 10:50:44;;;;;;;8.73;5.30;;;;;;;6.79;25.20;101423.33;1642333;85;21011;-69
2022/03/12 10:53:12;;;;;;;7.92;4.97;;;;;;;6.83;25.16;101426.89;1650499;85;21106;-69
2022/03/12 10:55:43;;;;;;;9.05;5.55;;;;;;;6.91;24.91;101412.87;1648337;84;21425;-69
2022/03/12 10:58:21;;;;;;;9.68;5.45;;;;;;;6.96;25.07;101420.19;1647662;84;21185;-68
2022/03/12 11:00:54;;;;;;;8.43;5.25;;;;;;;6.94;25.02;101412.94;1648723;84;21134;-68
2022/03/12 11:03:27;;;;;;;8.73;4.90;;;;;;;6.92;25.15;101413.16;1648585;84;21753;-69
2022/03/12 11:05:56;;;;;;;9.13;5.80;;;;;;;6.90;25.56;101410.41;1645823;86;21099;-68
2022/03/12 11:08:26;;;;;;;9.93;5.67;;;;;;;6.83;25.87;101409.11;1648808;84;21118;-70
2022/03/12 11:11:11;;;;;;;9.03;5.80;;;;;;;6.75;26.08;101400.88;1646657;85;21119;-68
2022/03/12 11:13:41;;;;;;;9.95;5.58;;;;;;;6.74;26.22;101401.88;1650698;84;21020;-68
2022/03/12 11:16:32;;;;;;;9.03;5.85;;;;;;;6.79;26.47;101395.96;1647778;84;21099;-69
2022/03/12 11:19:07;;;;;;;10.65;5.62;;;;;;;6.85;26.42;101396.45;1647525;84;21020;-68
2022/03/12 11:21:55;;;;;;;9.48;5.95;;;;;;;6.95;26.31;101395.99;1648591;84;21150;-69
2022/03/12 11:24:18;;;;;;;10.00;5.70;;;;;;;7.02;26.60;101392.78;1647282;84;21856;-67
2022/03/12 11:27:00;;;;;;;7.75;5.37;;;;;;;7.05;26.02;101392.36;1653668;84;20967;-68